createdAt,value
2017-09-28T00:01:59.679Z,102176.40
2017-09-28T00:04:27.280Z,102172.95
2017-09-28T00:06:54.911Z,102175.02
2017-09-28T00:09:22.827Z,102176.80
2017-09-28T00:11:50.508Z,102171.58
2017-09-28T00:14:18.462Z,102172.50
2017-09-28T00:16:46.049Z,102168.05
2017-09-28T00:19:13.670Z,102160.23
2017-09-28T00:21:41.257Z,102160.31
2017-09-28T00:24:08.894Z,102169.73
2017-09-28T00:26:36.477Z,102168.05
2017-09-28T00:29:04.117Z,102168.69
2017-09-28T00:31:31.749Z,102169.02
2017-09-28T00:33:59.342Z,102171.88
2017-09-28T00:36:26.965Z,102170.88
2017-09-28T00:38:54.558Z,102171.98
2017-09-28T00:41:22.145Z,102172.89
2017-09-28T00:43:49.789Z,102166.25
2017-09-28T00:46:17.392Z,102165.06
2017-09-28T00:48:45.008Z,102163.84
2017-09-28T00:51:12.606Z,102163.50
2017-09-28T00:53:40.453Z,102171.00
2017-09-28T00:56:08.427Z,102160.31
2017-09-28T00:58:36.293Z,102164.57
2017-09-28T01:01:04.260Z,102157.64
2017-09-28T01:03:31.852Z,102152.92
2017-09-28T01:05:59.478Z,102161.59
2017-09-28T01:08:27.352Z,102154.18
2017-09-28T01:10:54.957Z,102165.64
2017-09-28T01:13:22.579Z,102163.78
2017-09-28T01:15:50.158Z,102165.22
2017-09-28T01:18:17.756Z,102170.19
2017-09-28T01:20:45.372Z,102161.02
2017-09-28T01:23:12.981Z,102162.31
2017-09-28T01:25:40.629Z,102169.27
2017-09-28T01:28:08.461Z,102164.25
2017-09-28T01:30:36.058Z,102159.66
2017-09-28T01:33:03.689Z,102163.24
2017-09-28T01:35:31.288Z,102158.03
2017-09-28T01:37:58.934Z,102160.52
2017-09-28T01:40:26.526Z,102154.58
2017-09-28T01:42:54.125Z,102156.10
2017-09-28T01:45:21.753Z,102157.03
2017-09-28T01:47:49.655Z,102153.22
2017-09-28T01:50:17.281Z,102153.27
2017-09-28T01:52:44.906Z,102156.38
2017-09-28T01:55:12.751Z,102152.80
2017-09-28T01:57:40.384Z,102153.95
2017-09-28T02:00:08.285Z,102156.81
2017-09-28T02:02:35.925Z,102151.10
2017-09-28T02:05:03.521Z,102152.95
2017-09-28T02:07:31.104Z,102149.67
2017-09-28T02:09:59.034Z,102148.61
2017-09-28T02:12:26.650Z,102149.67
2017-09-28T02:14:54.369Z,102149.42
2017-09-28T02:17:21.969Z,102139.88
2017-09-28T02:19:49.576Z,102139.80
2017-09-28T02:22:17.212Z,102139.88
2017-09-28T02:24:44.792Z,102138.12
2017-09-28T02:27:12.439Z,102130.84
2017-09-28T02:29:40.044Z,102131.77
2017-09-28T02:32:07.657Z,102133.88
2017-09-28T02:34:35.560Z,102134.67
2017-09-28T02:37:03.164Z,102134.05
2017-09-28T02:39:30.839Z,102133.33
2017-09-28T02:41:58.439Z,102129.47
2017-09-28T02:44:26.054Z,102134.97
2017-09-28T02:46:53.677Z,102144.13
2017-09-28T02:49:21.288Z,102133.05
2017-09-28T02:51:48.925Z,102133.42
2017-09-28T02:54:16.520Z,102131.53
2017-09-28T02:56:44.116Z,102126.77
2017-09-28T02:59:11.737Z,102126.98
2017-09-28T03:01:39.334Z,102131.78
2017-09-28T03:04:06.985Z,102132.79
2017-09-28T03:06:34.977Z,102132.63
2017-09-28T03:09:02.586Z,102129.38
2017-09-28T03:11:30.277Z,102136.19
2017-09-28T03:13:57.884Z,102132.46
2017-09-28T03:16:25.841Z,102136.67
2017-09-28T03:18:53.449Z,102133.52
2017-09-28T03:21:21.040Z,102139.52
2017-09-28T03:23:48.678Z,102142.46
2017-09-28T03:26:16.312Z,102142.04
2017-09-28T03:28:43.964Z,102145.86
2017-09-28T03:31:11.566Z,102140.53
2017-09-28T03:33:39.205Z,102137.33
2017-09-28T03:36:06.826Z,102129.27
2017-09-28T03:38:34.446Z,102128.47
2017-09-28T03:41:02.092Z,102129.59
2017-09-28T03:43:29.705Z,102129.77
2017-09-28T03:45:57.311Z,102139.30
2017-09-28T03:48:24.921Z,102137.95
2017-09-28T03:50:52.532Z,102146.08
2017-09-28T03:53:20.193Z,102145.19
2017-09-28T03:55:47.792Z,102147.63
2017-09-28T03:58:15.697Z,102153.75
2017-09-28T04:00:43.317Z,102152.11
2017-09-28T04:03:10.944Z,102152.02
2017-09-28T04:05:38.911Z,102154.46
2017-09-28T04:08:06.495Z,102154.20
2017-09-28T04:10:34.144Z,102157.34
2017-09-28T04:13:01.756Z,102158.58
2017-09-28T04:15:29.364Z,102152.08
2017-09-28T04:17:57.006Z,102153.11
2017-09-28T04:20:24.596Z,102147.06
2017-09-28T04:22:52.208Z,102153.28
2017-09-28T04:25:19.817Z,102156.31
2017-09-28T04:27:47.756Z,102147.55
2017-09-28T04:30:15.750Z,102149.31
2017-09-28T04:32:43.339Z,102148.48
2017-09-28T04:35:10.939Z,102149.08
2017-09-28T04:37:38.563Z,102158.02
2017-09-28T04:40:06.145Z,102163.36
2017-09-28T04:42:33.728Z,102163.11
2017-09-28T04:45:01.364Z,102160.59
2017-09-28T04:47:29.273Z,102160.95
2017-09-28T04:49:56.859Z,102163.21
2017-09-28T04:52:24.506Z,102167.42
2017-09-28T04:54:52.091Z,102172.04
2017-09-28T04:57:19.697Z,102171.72
2017-09-28T04:59:47.325Z,102173.90
2017-09-28T05:02:15.245Z,102173.83
2017-09-28T05:04:42.859Z,102177.00
2017-09-28T05:07:10.452Z,102177.00
2017-09-28T05:09:38.055Z,102171.61
2017-09-28T05:12:05.687Z,102174.06
2017-09-28T05:14:33.277Z,102173.14
2017-09-28T05:17:00.904Z,102182.66
2017-09-28T05:19:28.494Z,102178.03
2017-09-28T05:21:56.096Z,102177.27
2017-09-28T05:24:23.860Z,102176.19
2017-09-28T05:26:51.899Z,102178.27
2017-09-28T05:29:19.556Z,102180.31
2017-09-28T05:31:47.172Z,102181.16
2017-09-28T05:34:14.880Z,102179.06
2017-09-28T05:36:42.849Z,102180.75
2017-09-28T05:39:10.450Z,102194.41
2017-09-28T05:41:38.121Z,102186.95
2017-09-28T05:44:05.732Z,102189.55
2017-09-28T05:46:33.376Z,102190.21
2017-09-28T05:49:00.992Z,102198.55
2017-09-28T05:51:28.593Z,102193.58
2017-09-28T05:53:56.232Z,102194.77
2017-09-28T05:56:23.825Z,102198.27
2017-09-28T05:58:51.430Z,102196.27
2017-09-28T06:01:19.084Z,102201.05
2017-09-28T06:03:46.672Z,102206.34
2017-09-28T06:06:14.305Z,102197.43
2017-09-28T06:08:41.900Z,102199.45
2017-09-28T06:11:09.487Z,102201.31
2017-09-28T06:13:37.112Z,102188.80
2017-09-28T06:16:04.699Z,102191.07
2017-09-28T06:18:32.344Z,102181.83
2017-09-28T06:20:59.967Z,102191.07
2017-09-28T06:23:27.585Z,102184.84
2017-09-28T06:25:55.243Z,102182.75
2017-09-28T06:28:22.868Z,102195.76
2017-09-28T06:30:50.528Z,102192.48
2017-09-28T06:33:18.132Z,102202.23
2017-09-28T06:35:45.710Z,102201.53
2017-09-28T06:38:13.349Z,102207.58
2017-09-28T06:40:40.944Z,102197.23
2017-09-28T06:43:08.589Z,102197.36
2017-09-28T06:45:36.176Z,102208.84
2017-09-28T06:48:03.772Z,102211.20
2017-09-28T06:50:31.605Z,102214.80
2017-09-28T06:52:59.198Z,102217.98
2017-09-28T06:55:26.835Z,102217.58
2017-09-28T06:57:54.693Z,102216.96
2017-09-28T07:00:22.292Z,102212.19
2017-09-28T07:02:49.944Z,102223.27
2017-09-28T07:05:17.554Z,102223.17
2017-09-28T07:07:45.192Z,102217.63
2017-09-28T07:13:05.295Z,102218.65
2017-09-28T07:15:33.224Z,102217.22
2017-09-28T07:18:00.825Z,102214.02
2017-09-28T07:20:28.450Z,102218.31
2017-09-28T07:22:56.048Z,102223.14
2017-09-28T07:25:23.976Z,102223.02
2017-09-28T07:27:51.577Z,102220.97
2017-09-28T07:30:19.197Z,102237.28
2017-09-28T07:32:46.816Z,102233.57
2017-09-28T07:35:14.400Z,102233.57
2017-09-28T07:37:42.037Z,102238.92
2017-09-28T07:40:09.639Z,102249.45
2017-09-28T07:42:37.257Z,102250.20
2017-09-28T07:45:04.885Z,102252.00
2017-09-28T07:47:32.479Z,102244.94
2017-09-28T07:50:00.124Z,102239.72
2017-09-28T07:52:27.712Z,102246.84
2017-09-28T07:54:55.305Z,102241.11
2017-09-28T07:57:22.927Z,102242.52
2017-09-28T07:59:50.853Z,102241.41
2017-09-28T08:02:18.480Z,102242.06
2017-09-28T08:04:46.084Z,102236.39
2017-09-28T08:07:13.680Z,102234.80
2017-09-28T08:09:41.302Z,102238.00
2017-09-28T08:12:08.929Z,102237.53
2017-09-28T08:14:36.556Z,102238.69
2017-09-28T08:17:04.165Z,102242.28
2017-09-28T08:19:31.776Z,102246.92
2017-09-28T08:21:59.385Z,102244.93
2017-09-28T08:24:26.987Z,102245.98
2017-09-28T08:26:54.941Z,102242.81
2017-09-28T08:29:22.540Z,102242.16
2017-09-28T08:31:50.183Z,102241.56
2017-09-28T08:34:17.889Z,102247.36
2017-09-28T08:36:45.518Z,102242.83
2017-09-28T08:39:13.174Z,102243.94
2017-09-28T08:41:40.772Z,102242.79
2017-09-28T08:44:08.388Z,102234.44
2017-09-28T08:46:36.051Z,102237.78
2017-09-28T08:49:03.640Z,102235.66
2017-09-28T08:51:31.291Z,102233.23
2017-09-28T08:53:58.896Z,102225.73
2017-09-28T08:56:26.475Z,102224.73
2017-09-28T08:58:54.084Z,102225.24
2017-09-28T09:01:21.679Z,102224.03
2017-09-28T09:03:49.291Z,102227.30
2017-09-28T09:06:16.868Z,102223.53
2017-09-28T09:08:44.963Z,102225.45
2017-09-28T09:11:12.582Z,102223.45
2017-09-28T09:13:40.201Z,102220.02
2017-09-28T09:16:08.096Z,102213.20
2017-09-28T09:18:35.968Z,102199.89
2017-09-28T09:21:03.841Z,102205.78
2017-09-28T09:23:31.804Z,102208.67
2017-09-28T09:25:59.387Z,102216.47
2017-09-28T09:28:27.412Z,102214.77
2017-09-28T09:30:55.002Z,102221.26
2017-09-28T09:33:22.581Z,102230.74
2017-09-28T09:35:50.210Z,102226.02
2017-09-28T09:38:18.090Z,102220.53
2017-09-28T09:40:45.740Z,102213.00
2017-09-28T09:43:13.620Z,102210.38
2017-09-28T09:45:41.487Z,102212.02
2017-09-28T09:48:09.114Z,102209.06
2017-09-28T09:50:36.712Z,102206.07
2017-09-28T09:53:04.679Z,102205.69
2017-09-28T09:55:32.275Z,102205.09
2017-09-28T09:58:00.231Z,102197.56
2017-09-28T10:00:27.859Z,102200.78
2017-09-28T10:02:55.849Z,102199.07
2017-09-28T10:05:23.816Z,102197.73
2017-09-28T10:08:06.018Z,102189.23
2017-09-28T10:10:43.771Z,102189.80
2017-09-28T10:13:16.416Z,102194.20
2017-09-28T10:16:05.190Z,102201.41
2017-09-28T10:18:32.787Z,102197.76
2017-09-28T10:21:00.691Z,102192.36
2017-09-28T10:23:28.324Z,102191.79
2017-09-28T10:25:55.943Z,102186.89
2017-09-28T10:28:23.579Z,102197.13
2017-09-28T10:30:51.179Z,102198.78
2017-09-28T10:33:18.781Z,102203.22
2017-09-28T10:35:46.403Z,102200.06
2017-09-28T10:38:14.010Z,102202.97
2017-09-28T10:40:41.642Z,102202.75
2017-09-28T10:43:09.252Z,102205.95
2017-09-28T10:45:36.865Z,102210.31
2017-09-28T10:48:04.481Z,102206.69
2017-09-28T10:50:32.070Z,102211.96
2017-09-28T10:52:59.685Z,102212.59
2017-09-28T10:55:27.293Z,102204.70
2017-09-28T10:57:54.885Z,102205.27
2017-09-28T11:00:22.534Z,102205.98
2017-09-28T11:02:50.147Z,102204.39
2017-09-28T11:05:17.909Z,102208.64
2017-09-28T11:07:45.503Z,102200.13
2017-09-28T11:10:13.121Z,102201.06
2017-09-28T11:12:40.749Z,102208.25
2017-09-28T11:15:08.338Z,102204.35
2017-09-28T11:17:35.984Z,102203.31
2017-09-28T11:20:03.586Z,102199.45
2017-09-28T11:22:31.234Z,102195.86
2017-09-28T11:24:58.907Z,102196.60
2017-09-28T11:27:26.520Z,102192.70
2017-09-28T11:29:54.182Z,102193.33
2017-09-28T11:32:21.820Z,102188.28
2017-09-28T11:34:49.427Z,102190.48
2017-09-28T11:37:17.073Z,102185.71
2017-09-28T11:39:44.686Z,102181.41
2017-09-28T11:42:12.330Z,102181.46
2017-09-28T11:44:39.951Z,102177.20
2017-09-28T11:47:07.873Z,102172.05
2017-09-28T11:49:35.520Z,102174.19
2017-09-28T11:52:03.134Z,102174.21
2017-09-28T11:54:30.866Z,102180.42
2017-09-28T11:56:58.497Z,102174.36
2017-09-28T11:59:26.118Z,102174.25
2017-09-28T12:01:53.781Z,102166.85
2017-09-28T12:04:21.385Z,102169.59
2017-09-28T12:06:49.019Z,102160.84
2017-09-28T12:09:16.628Z,102166.58
2017-09-28T12:11:44.292Z,102168.48
2017-09-28T12:14:12.274Z,102167.79
2017-09-28T12:16:39.896Z,102171.08
2017-09-28T12:19:07.530Z,102164.89
2017-09-28T12:21:35.132Z,102172.54
2017-09-28T12:24:02.739Z,102175.05
2017-09-28T12:26:30.369Z,102174.62
2017-09-28T12:28:57.971Z,102178.67
2017-09-28T12:31:25.909Z,102183.18
2017-09-28T12:33:53.509Z,102183.28
2017-09-28T12:36:21.436Z,102185.36
2017-09-28T12:38:49.066Z,102190.13
2017-09-28T12:41:16.659Z,102190.31
2017-09-28T12:43:44.292Z,102196.52
2017-09-28T12:46:11.885Z,102198.77
2017-09-28T12:48:39.489Z,102201.83
2017-09-28T12:51:07.127Z,102196.92
2017-09-28T12:53:34.977Z,102198.01
2017-09-28T12:56:02.565Z,102189.86
2017-09-28T12:58:30.197Z,102188.88
2017-09-28T13:00:57.791Z,102184.09
2017-09-28T13:03:25.382Z,102188.82
2017-09-28T13:05:53.009Z,102190.18
2017-09-28T13:08:20.637Z,102196.30
2017-09-28T13:10:48.228Z,102192.13
2017-09-28T13:13:15.857Z,102196.52
2017-09-28T13:15:43.446Z,102186.53
2017-09-28T13:18:11.101Z,102188.12
2017-09-28T13:20:38.680Z,102198.25
2017-09-28T13:23:06.634Z,102192.02
2017-09-28T13:25:34.292Z,102193.58
2017-09-28T13:28:01.875Z,102186.36
2017-09-28T13:30:29.510Z,102187.72
2017-09-28T13:32:57.140Z,102197.31
2017-09-28T13:35:24.733Z,102184.69
2017-09-28T13:37:52.382Z,102189.77
2017-09-28T13:40:19.968Z,102183.83
2017-09-28T13:42:47.628Z,102190.28
2017-09-28T13:45:15.497Z,102186.74
2017-09-28T13:47:43.092Z,102194.74
2017-09-28T13:50:10.716Z,102186.33
2017-09-28T13:52:38.303Z,102184.55
2017-09-28T13:55:05.972Z,102178.19
2017-09-28T13:57:33.569Z,102182.37
2017-09-28T14:00:01.165Z,102179.86
2017-09-28T14:02:28.826Z,102179.26
2017-09-28T14:04:56.700Z,102172.58
2017-09-28T14:07:24.316Z,102178.81
2017-09-28T14:09:51.928Z,102181.52
2017-09-28T14:12:19.545Z,102180.68
2017-09-28T14:14:47.171Z,102176.39
2017-09-28T14:17:14.758Z,102187.72
2017-09-28T14:19:42.424Z,102181.38
2017-09-28T14:22:10.009Z,102180.33
2017-09-28T14:24:37.605Z,102178.59
2017-09-28T14:27:05.211Z,102179.73
2017-09-28T14:29:32.803Z,102181.95
2017-09-28T14:32:00.448Z,102179.29
2017-09-28T14:34:28.028Z,102180.54
2017-09-28T14:36:55.607Z,102176.58
2017-09-28T14:39:23.463Z,102180.44
2017-09-28T14:41:51.647Z,102179.19
2017-09-28T14:44:19.285Z,102176.05
2017-09-28T14:46:46.869Z,102174.39
2017-09-28T14:49:14.471Z,102178.98
2017-09-28T14:51:42.083Z,102175.11
2017-09-28T14:54:09.696Z,102178.55
2017-09-28T14:56:37.368Z,102176.27
2017-09-28T14:59:04.949Z,102176.23
2017-09-28T15:01:32.532Z,102183.25
2017-09-28T15:04:00.159Z,102177.98
2017-09-28T15:06:27.744Z,102180.30
2017-09-28T15:08:55.380Z,102185.17
2017-09-28T15:11:22.989Z,102192.23
2017-09-28T15:13:50.614Z,102180.55
2017-09-28T15:16:18.533Z,102189.16
2017-09-28T15:18:46.117Z,102189.05
2017-09-28T15:21:13.801Z,102197.89
2017-09-28T15:23:41.401Z,102196.52
2017-09-28T15:26:08.997Z,102190.34
2017-09-28T15:28:36.617Z,102191.04
2017-09-28T15:31:04.508Z,102193.95
2017-09-28T15:33:32.130Z,102191.92
2017-09-28T15:35:59.740Z,102196.88
2017-09-28T15:38:27.329Z,102198.66
2017-09-28T15:40:54.947Z,102198.30
2017-09-28T15:43:22.551Z,102196.02
2017-09-28T15:45:50.475Z,102199.95
2017-09-28T15:48:18.363Z,102196.73
2017-09-28T15:50:45.984Z,102200.40
2017-09-28T15:53:13.620Z,102202.56
2017-09-28T15:55:41.215Z,102210.26
2017-09-28T15:58:08.844Z,102210.97
2017-09-28T16:00:36.437Z,102206.59
2017-09-28T16:03:04.427Z,102206.59
2017-09-28T16:05:32.037Z,102203.36
2017-09-28T16:07:59.620Z,102209.55
2017-09-28T16:10:27.240Z,102204.14
2017-09-28T16:12:54.826Z,102207.39
2017-09-28T16:15:22.416Z,102216.59
2017-09-28T16:17:50.046Z,102211.09
2017-09-28T16:20:17.628Z,102214.50
2017-09-28T16:22:45.298Z,102207.05
2017-09-28T16:25:13.191Z,102213.81
2017-09-28T16:27:41.057Z,102212.98
2017-09-28T16:30:08.688Z,102211.72
2017-09-28T16:32:36.324Z,102214.28
2017-09-28T16:35:04.246Z,102216.20
2017-09-28T16:37:32.116Z,102215.67
2017-09-28T16:39:59.695Z,102220.30
2017-09-28T16:42:27.319Z,102219.65
2017-09-28T16:44:54.899Z,102226.56
2017-09-28T16:47:22.519Z,102227.17
2017-09-28T16:49:50.100Z,102215.09
2017-09-28T16:52:17.987Z,102221.94
2017-09-28T16:54:45.599Z,102213.91
2017-09-28T16:57:13.189Z,102222.17
2017-09-28T16:59:40.815Z,102218.71
2017-09-28T17:02:08.432Z,102212.99
2017-09-28T17:04:36.021Z,102215.84
2017-09-28T17:07:03.642Z,102213.22
2017-09-28T17:09:31.230Z,102213.97
2017-09-28T17:11:58.898Z,102220.02
2017-09-28T17:14:26.855Z,102214.20
2017-09-28T17:16:54.724Z,102216.16
2017-09-28T17:19:22.393Z,102214.28
2017-09-28T17:21:50.006Z,102217.36
2017-09-28T17:24:17.682Z,102217.69
2017-09-28T17:26:45.289Z,102216.76
2017-09-28T17:29:12.872Z,102214.66
2017-09-28T17:31:40.485Z,102212.51
2017-09-28T17:34:08.109Z,102212.55
2017-09-28T17:36:36.025Z,102215.25
2017-09-28T17:39:03.893Z,102213.67
2017-09-28T17:41:31.479Z,102215.30
2017-09-28T17:43:59.100Z,102210.73
2017-09-28T17:46:26.686Z,102213.77
2017-09-28T17:48:54.648Z,102208.73
2017-09-28T17:51:22.317Z,102203.84
2017-09-28T17:53:49.915Z,102205.69
2017-09-28T17:56:17.547Z,102203.58
2017-09-28T17:58:45.507Z,102208.05
2017-09-28T18:01:13.134Z,102206.75
2017-09-28T18:03:40.731Z,102214.53
2017-09-28T18:06:09.425Z,102209.69
2017-09-28T18:08:37.033Z,102208.52
2017-09-28T18:11:04.643Z,102211.62
2017-09-28T18:13:32.269Z,102213.81
2017-09-28T18:15:59.843Z,102211.97
2017-09-28T18:18:27.468Z,102208.70
2017-09-28T18:20:55.393Z,102211.06
2017-09-28T18:23:22.981Z,102213.09
2017-09-28T18:25:50.610Z,102217.09
2017-09-28T18:28:18.490Z,102218.76
2017-09-28T18:30:46.136Z,102218.02
2017-09-28T18:33:13.809Z,102213.03
2017-09-28T18:35:47.316Z,102218.03
2017-09-28T18:38:15.015Z,102215.14
2017-09-28T18:40:42.637Z,102218.10
2017-09-28T18:43:10.408Z,102216.28
2017-09-28T18:45:38.015Z,102217.28
2017-09-28T18:48:05.620Z,102221.84
2017-09-28T18:50:33.244Z,102221.19
2017-09-28T18:53:00.832Z,102223.05
2017-09-28T18:55:29.053Z,102220.01
2017-09-28T18:57:57.001Z,102218.38
2017-09-28T19:00:24.608Z,102222.43
2017-09-28T19:02:52.227Z,102223.62
2017-09-28T19:05:19.841Z,102227.20
2017-09-28T19:07:47.652Z,102227.50
2017-09-28T19:10:15.255Z,102231.92
2017-09-28T19:12:43.184Z,102227.69
2017-09-28T19:15:10.807Z,102223.82
2017-09-28T19:17:38.407Z,102224.33
2017-09-28T19:20:06.273Z,102226.03
2017-09-28T19:22:33.895Z,102226.52
2017-09-28T19:25:01.804Z,102224.20
2017-09-28T19:27:29.446Z,102215.83
2017-09-28T19:29:57.052Z,102210.31
2017-09-28T19:32:24.641Z,102211.10
2017-09-28T19:34:52.273Z,102211.84
2017-09-28T19:37:20.397Z,102219.44
2017-09-28T19:39:48.049Z,102215.42
2017-09-28T19:42:15.630Z,102215.98
2017-09-28T19:44:43.216Z,102223.10
2017-09-28T19:47:10.828Z,102216.90
2017-09-28T19:49:38.433Z,102213.36
2017-09-28T19:52:06.127Z,102218.34
2017-09-28T19:54:33.728Z,102207.63
2017-09-28T19:57:01.321Z,102204.37
2017-09-28T19:59:29.293Z,102204.58
2017-09-28T20:01:56.881Z,102209.25
2017-09-28T20:04:24.505Z,102209.25
2017-09-28T20:06:52.100Z,102204.44
2017-09-28T20:09:19.707Z,102200.65
2017-09-28T20:11:47.318Z,102197.88
2017-09-28T20:14:14.915Z,102197.00
2017-09-28T20:16:42.841Z,102196.25
2017-09-28T20:19:10.448Z,102191.18
2017-09-28T20:21:38.074Z,102195.34
2017-09-28T20:24:05.921Z,102193.45
2017-09-28T20:26:33.560Z,102197.88
2017-09-28T20:29:01.156Z,102196.80
2017-09-28T20:31:28.752Z,102185.19
2017-09-28T20:33:56.387Z,102186.63
2017-09-28T20:36:24.568Z,102188.19
2017-09-28T20:38:52.192Z,102184.14
2017-09-28T20:41:19.788Z,102182.79
2017-09-28T20:43:47.371Z,102185.97
2017-09-28T20:46:14.990Z,102180.10
2017-09-28T20:48:42.604Z,102182.70
2017-09-28T20:51:10.224Z,102181.96
2017-09-28T20:53:37.811Z,102188.44
2017-09-28T20:56:05.412Z,102183.73
2017-09-28T20:58:33.037Z,102182.11
2017-09-28T21:01:00.620Z,102183.22
2017-09-28T21:03:28.246Z,102182.11
2017-09-28T21:05:55.828Z,102181.92
2017-09-28T21:08:23.419Z,102178.34
2017-09-28T21:10:51.051Z,102179.39
2017-09-28T21:13:18.628Z,102180.83
2017-09-28T21:15:46.703Z,102176.63
2017-09-28T21:18:14.503Z,102181.61
2017-09-28T21:20:42.089Z,102183.28
2017-09-28T21:23:09.722Z,102179.80
2017-09-28T21:25:37.320Z,102183.28
2017-09-28T21:28:05.001Z,102181.84
2017-09-28T21:30:32.927Z,102182.02
2017-09-28T21:33:00.529Z,102177.31
2017-09-28T21:35:28.132Z,102174.20
2017-09-28T21:37:55.715Z,102170.55
2017-09-28T21:40:23.692Z,102173.98
2017-09-28T21:42:51.286Z,102173.61
2017-09-28T21:45:18.904Z,102174.83
2017-09-28T21:47:46.542Z,102173.23
2017-09-28T21:50:14.136Z,102174.35
2017-09-28T21:52:41.774Z,102171.50
2017-09-28T21:55:09.362Z,102166.63
2017-09-28T21:57:36.957Z,102167.95
2017-09-28T22:00:04.563Z,102165.58
2017-09-28T22:02:32.155Z,102164.98
2017-09-28T22:04:59.802Z,102170.66
2017-09-28T22:07:27.668Z,102167.53
2017-09-28T22:09:55.273Z,102160.13
2017-09-28T22:12:22.886Z,102162.50
2017-09-28T22:14:50.479Z,102165.70
2017-09-28T22:17:18.128Z,102160.22
2017-09-28T22:19:45.731Z,102160.94
2017-09-28T22:22:13.333Z,102156.57
2017-09-28T22:24:40.980Z,102152.73
2017-09-28T22:27:08.577Z,102160.61
2017-09-28T22:29:36.246Z,102160.80
2017-09-28T22:32:03.837Z,102157.11
2017-09-28T22:34:31.427Z,102149.77
2017-09-28T22:36:59.044Z,102152.31
2017-09-28T22:39:26.624Z,102156.33
2017-09-28T22:41:54.249Z,102155.16
2017-09-28T22:44:21.848Z,102153.81
2017-09-28T22:46:49.458Z,102151.12
2017-09-28T22:49:17.084Z,102147.58
2017-09-28T22:51:44.676Z,102154.09
2017-09-28T22:54:12.659Z,102150.44
2017-09-28T22:56:40.256Z,102152.70
2017-09-28T22:59:07.857Z,102148.94
2017-09-28T23:01:35.477Z,102149.11
2017-09-28T23:04:03.064Z,102147.64
2017-09-28T23:06:30.695Z,102147.85
2017-09-28T23:08:58.280Z,102144.95
2017-09-28T23:11:26.784Z,102147.14
2017-09-28T23:13:54.410Z,102142.10
2017-09-28T23:16:22.033Z,102144.98
2017-09-28T23:18:49.675Z,102147.34
2017-09-28T23:21:17.297Z,102146.62
2017-09-28T23:23:45.227Z,102145.88
2017-09-28T23:26:12.848Z,102144.20
2017-09-28T23:28:40.444Z,102144.11
2017-09-28T23:31:08.414Z,102148.60
2017-09-28T23:33:36.299Z,102146.41
2017-09-28T23:36:03.893Z,102148.99
2017-09-28T23:38:31.520Z,102147.31
2017-09-28T23:40:59.142Z,102147.16
2017-09-28T23:43:27.257Z,102149.53
2017-09-28T23:45:54.840Z,102137.88
2017-09-28T23:48:22.452Z,102140.81
2017-09-28T23:50:50.064Z,102136.29
2017-09-28T23:53:17.667Z,102136.56
2017-09-28T23:55:45.283Z,102135.63
2017-09-28T23:58:12.908Z,102132.84
